Time;durP1;ratioP1;P1;durP2;ratioP2;P2;SDS_P1;SDS_P2;PMS_P1;PMS_P2;Temp;Humidity;BMP_temperature;BMP_pressure;BME280_temperature;BME280_humidity;BME280_pressure;Samples;Min_cycle;Max_cycle;Signal;HPM_P1;HPM_P2
2022/10/25 00:01:45;;;;;;;2.00;1.50;;;13.30;1.00;;;;;;5088867;28;20690;-79
2022/10/25 00:04:11;;;;;;;5.37;1.43;;;13.30;1.00;;;;;;5085441;28;20175;-77
2022/10/25 00:06:36;;;;;;;2.10;1.40;;;13.20;1.00;;;;;;5091125;28;20555;-77
2022/10/25 00:09:02;;;;;;;2.83;1.60;;;13.20;1.00;;;;;;5090539;28;20226;-77
2022/10/25 00:11:30;;;;;;;2.50;1.47;;;13.20;1.00;;;;;;5090345;28;20196;-77
2022/10/25 00:13:59;;;;;;;3.53;1.73;;;13.10;1.00;;;;;;5089636;28;20445;-78
2022/10/25 00:16:30;;;;;;;2.50;1.30;;;13.10;1.00;;;;;;5089782;28;20783;-77
2022/10/25 00:18:56;;;;;;;1.97;1.50;;;13.00;1.00;;;;;;5087282;28;20426;-77
2022/10/25 00:21:22;;;;;;;2.80;1.30;;;12.90;1.00;;;;;;5090467;28;20772;-76
2022/10/25 00:23:48;;;;;;;4.30;1.30;;;12.90;1.00;;;;;;5087088;28;20550;-76
2022/10/25 00:26:14;;;;;;;8.90;1.40;;;12.90;1.00;;;;;;5089386;28;20175;-77
2022/10/25 00:28:40;;;;;;;1.73;1.20;;;12.90;1.00;;;;;;5089034;28;20444;-77
2022/10/25 00:31:09;;;;;;;2.63;1.67;;;12.90;1.00;;;;;;5085820;28;20188;-76
2022/10/25 00:33:36;;;;;;;7.70;1.57;;;13.00;1.00;;;;;;5082596;28;20180;-78
2022/10/25 00:36:11;;;;;;;3.40;1.10;;;13.10;1.00;;;;;;5091442;28;20398;-77
2022/10/25 00:38:37;;;;;;;3.33;1.50;;;13.20;1.00;;;;;;5077922;28;20970;-79
2022/10/25 00:41:03;;;;;;;1.83;1.20;;;13.70;1.00;;;;;;5087634;28;20454;-79
2022/10/25 00:43:36;;;;;;;4.73;1.40;;;13.40;1.00;;;;;;5087622;28;20531;-77
2022/10/25 00:46:08;;;;;;;2.30;1.30;;;13.50;1.00;;;;;;5080618;28;20729;-77
2022/10/25 00:48:35;;;;;;;7.50;1.33;;;13.60;1.00;;;;;;5085732;28;21010;-77
2022/10/25 00:51:01;;;;;;;3.27;1.20;;;13.70;1.00;;;;;;5082011;28;20433;-80
2022/10/25 00:53:31;;;;;;;2.13;1.20;;;13.70;1.00;;;;;;5085671;28;20421;-77
2022/10/25 00:56:18;;;;;;;4.07;1.20;;;13.70;1.00;;;;;;5090275;28;20398;-78
2022/10/25 00:58:48;;;;;;;1.70;1.10;;;13.80;1.00;;;;;;5089028;28;20835;-77
2022/10/25 01:01:14;;;;;;;1.83;1.13;;;13.70;1.00;;;;;;5087617;28;20426;-77
2022/10/25 01:03:41;;;;;;;1.70;1.30;;;13.60;1.00;;;;;;5082601;28;20436;-79
2022/10/25 01:06:14;;;;;;;5.90;1.73;;;13.60;1.00;;;;;;5090608;28;20493;-77
2022/10/25 01:08:41;;;;;;;3.10;1.37;;;13.50;1.00;;;;;;5088848;28;20515;-77
2022/10/25 01:11:07;;;;;;;4.90;1.30;;;13.60;1.00;;;;;;5086278;28;20549;-77
2022/10/25 01:13:34;;;;;;;2.07;1.33;;;13.60;1.00;;;;;;5088807;28;20920;-78
2022/10/25 01:16:35;;;;;;;2.77;1.40;;;13.80;1.00;;;;;;5081175;28;20409;-77
2022/10/25 01:19:43;;;;;;;2.00;1.33;;;13.80;1.00;;;;;;5088946;28;20426;-79
2022/10/25 01:22:22;;;;;;;5.33;1.40;;;13.90;1.00;;;;;;5080387;28;20627;-78
2022/10/25 01:25:16;;;;;;;2.90;1.27;;;13.90;1.00;;;;;;5090882;28;20417;-77
2022/10/25 01:28:10;;;;;;;5.10;1.50;;;13.90;1.00;;;;;;5089594;28;20479;-78
2022/10/25 01:31:04;;;;;;;2.90;1.20;;;13.80;1.00;;;;;;5081848;28;20449;-77
2022/10/25 01:33:52;;;;;;;5.37;1.20;;;13.70;1.00;;;;;;5078688;28;20425;-78
2022/10/25 01:36:39;;;;;;;2.00;1.30;;;13.60;1.00;;;;;;5084315;28;20425;-77
2022/10/25 01:39:24;;;;;;;1.83;1.30;;;13.60;1.00;;;;;;5082414;28;20412;-77
2022/10/25 01:42:19;;;;;;;1.40;1.00;;;13.60;1.00;;;;;;5088312;28;20450;-76
2022/10/25 01:45:00;;;;;;;3.60;1.60;;;13.60;1.00;;;;;;5090175;28;20414;-78
2022/10/25 01:47:49;;;;;;;4.07;1.70;;;13.70;1.00;;;;;;5086818;28;20440;-76
2022/10/25 01:50:23;;;;;;;2.90;1.40;;;13.70;1.00;;;;;;5089579;28;20500;-77
2022/10/25 01:52:49;;;;;;;3.13;1.40;;;13.70;1.00;;;;;;5088942;28;20978;-78
2022/10/25 01:55:15;;;;;;;1.50;1.20;;;13.70;1.00;;;;;;5089837;28;20956;-77
2022/10/25 01:57:51;;;;;;;4.70;1.30;;;13.60;1.00;;;;;;5087102;28;20545;-77
2022/10/25 02:00:19;;;;;;;2.90;1.40;;;13.60;1.00;;;;;;5088489;28;20434;-77
2022/10/25 02:03:19;;;;;;;2.67;1.60;;;13.70;1.00;;;;;;5083838;28;20446;-77
2022/10/25 02:06:01;;;;;;;5.00;1.70;;;13.50;1.00;;;;;;5089160;28;20421;-77
2022/10/25 02:08:41;;;;;;;1.40;1.30;;;13.50;1.00;;;;;;5089755;28;20397;-77
2022/10/25 02:11:27;;;;;;;2.80;1.50;;;13.50;1.00;;;;;;5086535;28;20507;-78
2022/10/25 02:14:11;;;;;;;4.20;1.80;;;13.40;1.00;;;;;;5089127;28;20453;-77
2022/10/25 02:16:59;;;;;;;2.17;1.40;;;13.30;1.00;;;;;;5077962;28;20516;-77
2022/10/25 02:19:37;;;;;;;5.73;1.70;;;13.30;1.20;;;;;;5088973;28;20415;-78
2022/10/25 02:22:06;;;;;;;1.50;1.27;;;13.20;3.10;;;;;;5087704;28;20524;-79
2022/10/25 02:24:34;;;;;;;12.53;1.60;;;13.20;4.20;;;;;;5088811;28;20799;-78
2022/10/25 02:27:01;;;;;;;9.13;1.60;;;13.20;5.30;;;;;;5084042;28;20449;-78
2022/10/25 02:29:29;;;;;;;6.47;1.83;;;13.20;5.70;;;;;;5093010;28;20437;-78
2022/10/25 02:31:55;;;;;;;2.97;1.37;;;13.20;6.20;;;;;;5088879;28;20874;-78
2022/10/25 02:34:21;;;;;;;1.90;1.40;;;13.10;7.50;;;;;;5091939;28;20663;-76
2022/10/25 02:36:48;;;;;;;2.60;1.50;;;13.10;7.90;;;;;;5093325;28;20232;-77
2022/10/25 02:39:14;;;;;;;5.10;1.90;;;13.10;8.00;;;;;;5091877;28;20221;-77
2022/10/25 02:41:40;;;;;;;1.73;1.60;;;13.10;8.10;;;;;;5089036;28;20503;-77
2022/10/25 02:44:05;;;;;;;3.13;1.50;;;13.20;8.60;;;;;;5091314;28;20773;-78
2022/10/25 02:46:31;;;;;;;4.33;1.20;;;13.10;8.50;;;;;;5092354;28;20175;-76
2022/10/25 02:48:56;;;;;;;3.83;1.60;;;13.20;9.30;;;;;;5090222;28;20184;-78
2022/10/25 02:51:22;;;;;;;2.27;1.70;;;13.20;9.60;;;;;;5087313;28;20192;-78
2022/10/25 02:53:48;;;;;;;3.03;1.40;;;13.20;10.40;;;;;;5092398;28;20175;-79
2022/10/25 02:56:16;;;;;;;4.23;1.60;;;13.20;9.80;;;;;;5091376;28;20175;-77
2022/10/25 02:58:43;;;;;;;4.30;1.80;;;13.20;9.00;;;;;;5092072;28;20772;-79
2022/10/25 03:01:10;;;;;;;4.33;1.80;;;13.30;10.30;;;;;;5091496;28;20486;-78
2022/10/25 03:03:36;;;;;;;3.10;1.67;;;13.30;9.10;;;;;;5084038;28;20429;-79
2022/10/25 03:06:02;;;;;;;3.40;1.63;;;13.30;9.10;;;;;;5092722;28;20420;-78
2022/10/25 03:08:27;;;;;;;4.23;2.13;;;13.20;9.40;;;;;;5091353;28;20431;-77
2022/10/25 03:10:53;;;;;;;3.60;1.87;;;13.20;10.30;;;;;;5088052;28;20427;-77
2022/10/25 03:13:20;;;;;;;2.87;1.70;;;13.20;11.90;;;;;;5088962;28;20183;-79
2022/10/25 03:15:46;;;;;;;4.37;1.67;;;13.20;12.00;;;;;;5088162;28;20469;-78
2022/10/25 03:18:12;;;;;;;2.73;1.70;;;13.20;12.90;;;;;;5090494;28;20406;-80
2022/10/25 03:20:38;;;;;;;6.00;2.03;;;13.20;13.20;;;;;;5092412;28;20180;-78
2022/10/25 03:23:04;;;;;;;6.33;1.90;;;13.20;13.80;;;;;;5090424;28;20422;-77
2022/10/25 03:25:30;;;;;;;3.83;2.07;;;13.20;14.80;;;;;;5090320;28;20425;-76
2022/10/25 03:27:56;;;;;;;3.93;2.07;;;13.20;14.10;;;;;;5091330;28;20412;-78
2022/10/25 03:30:21;;;;;;;7.60;1.93;;;13.10;15.30;;;;;;5091298;28;20286;-78
2022/10/25 03:32:47;;;;;;;3.07;1.70;;;13.10;15.40;;;;;;5081922;28;20311;-78
2022/10/25 03:35:13;;;;;;;2.90;1.73;;;13.10;17.70;;;;;;5092518;28;20187;-77
2022/10/25 03:37:38;;;;;;;4.67;1.90;;;13.10;16.60;;;;;;5090967;28;20678;-78
2022/10/25 03:40:04;;;;;;;3.90;1.73;;;13.10;16.30;;;;;;5092060;28;20357;-76
2022/10/25 03:42:30;;;;;;;4.70;1.90;;;12.80;16.50;;;;;;5087679;28;20286;-77
2022/10/25 03:44:55;;;;;;;2.40;1.70;;;13.00;16.20;;;;;;5091058;28;20513;-77
2022/10/25 03:47:21;;;;;;;4.37;2.00;;;13.00;16.60;;;;;;5089776;28;20767;-79
2022/10/25 03:49:46;;;;;;;4.10;2.00;;;12.90;17.40;;;;;;5089997;28;20191;-78
2022/10/25 03:52:12;;;;;;;2.63;1.57;;;12.80;17.60;;;;;;5089492;28;20203;-77
2022/10/25 03:54:37;;;;;;;4.20;1.90;;;12.80;19.40;;;;;;5091307;28;20207;-79
2022/10/25 03:57:03;;;;;;;16.27;2.40;;;12.80;18.50;;;;;;5091719;28;20171;-77
2022/10/25 03:59:29;;;;;;;2.03;1.80;;;12.80;19.30;;;;;;5090703;28;20216;-78
2022/10/25 04:01:54;;;;;;;4.33;1.90;;;12.80;17.60;;;;;;5088721;28;20678;-78
2022/10/25 04:04:20;;;;;;;4.03;2.07;;;12.70;16.80;;;;;;5092079;28;20171;-79
2022/10/25 04:06:46;;;;;;;5.23;2.13;;;12.70;16.40;;;;;;5089039;28;20175;-76
2022/10/25 04:09:12;;;;;;;4.93;2.30;;;12.70;17.20;;;;;;5091689;28;20183;-77
2022/10/25 04:11:37;;;;;;;5.10;2.00;;;12.60;17.50;;;;;;5088860;28;20697;-77
2022/10/25 04:14:03;;;;;;;10.47;2.57;;;12.60;18.80;;;;;;5091163;28;20449;-79
2022/10/25 04:16:28;;;;;;;4.40;2.80;;;12.60;20.50;;;;;;5088128;28;20175;-77
2022/10/25 04:18:54;;;;;;;5.33;2.50;;;12.70;20.80;;;;;;5089890;28;20167;-77
2022/10/25 04:21:20;;;;;;;10.07;3.00;;;12.70;20.20;;;;;;5089077;28;20215;-76
2022/10/25 04:23:46;;;;;;;5.40;3.13;;;12.70;20.70;;;;;;5091646;28;20172;-77
2022/10/25 04:26:19;;;;;;;4.53;2.97;;;12.80;20.40;;;;;;5085634;28;20788;-76
2022/10/25 04:28:53;;;;;;;7.17;2.87;;;12.70;20.20;;;;;;5090502;28;20703;-77
2022/10/25 04:31:19;;;;;;;5.33;2.97;;;12.70;21.90;;;;;;5087550;28;20469;-76
2022/10/25 04:33:49;;;;;;;4.90;2.60;;;12.70;21.20;;;;;;5088556;28;20532;-79
2022/10/25 04:36:15;;;;;;;4.00;2.90;;;12.80;24.60;;;;;;5089587;28;20413;-77
2022/10/25 04:38:41;;;;;;;10.30;2.37;;;12.90;21.20;;;;;;5083591;28;20946;-77
2022/10/25 04:41:06;;;;;;;4.27;2.60;;;12.90;18.50;;;;;;5087524;28;20658;-77
2022/10/25 04:43:32;;;;;;;15.43;3.03;;;12.90;16.40;;;;;;5091209;28;20221;-76
2022/10/25 04:46:01;;;;;;;5.10;2.87;;;12.90;18.60;;;;;;5089826;28;20427;-77
2022/10/25 04:48:27;;;;;;;6.83;2.70;;;12.80;21.20;;;;;;5088200;28;20551;-76
2022/10/25 04:50:52;;;;;;;8.13;2.23;;;12.90;22.60;;;;;;5087303;28;20431;-77
2022/10/25 04:53:18;;;;;;;5.90;2.70;;;12.90;24.30;;;;;;5093387;28;20207;-77
2022/10/25 04:55:43;;;;;;;5.57;2.80;;;13.00;22.50;;;;;;5090796;28;20225;-76
2022/10/25 04:58:09;;;;;;;3.27;2.40;;;13.10;20.60;;;;;;5095879;28;20176;-78
2022/10/25 05:00:35;;;;;;;5.30;2.90;;;13.10;20.80;;;;;;5089194;28;20258;-79
2022/10/25 05:03:00;;;;;;;3.97;2.40;;;13.20;20.10;;;;;;5089521;28;20253;-76
2022/10/25 05:05:26;;;;;;;8.67;2.60;;;13.20;22.20;;;;;;5090970;28;20180;-76
2022/10/25 05:07:52;;;;;;;11.33;3.00;;;13.30;19.80;;;;;;5090046;28;20307;-77
2022/10/25 05:10:18;;;;;;;5.43;2.70;;;13.30;20.20;;;;;;5090614;28;20417;-79
2022/10/25 05:12:44;;;;;;;9.27;3.17;;;13.40;18.80;;;;;;5088681;28;20200;-79
2022/10/25 05:15:09;;;;;;;4.80;2.97;;;13.50;18.00;;;;;;5090458;28;20204;-76
2022/10/25 05:17:35;;;;;;;5.70;3.30;;;13.50;17.20;;;;;;5087129;28;20175;-76
2022/10/25 05:20:01;;;;;;;6.17;3.10;;;13.40;17.80;;;;;;5088496;28;20192;-77
2022/10/25 05:22:28;;;;;;;8.20;3.60;;;13.30;19.40;;;;;;5084037;28;20312;-77
2022/10/25 05:24:54;;;;;;;4.43;3.23;;;13.40;21.00;;;;;;5084876;28;20183;-77
2022/10/25 05:27:19;;;;;;;14.73;3.10;;;13.40;19.90;;;;;;5090898;28;20417;-78
2022/10/25 05:29:46;;;;;;;7.77;4.73;;;13.40;18.40;;;;;;5089608;28;20983;-77
2022/10/25 05:32:12;;;;;;;8.40;4.50;;;13.30;18.70;;;;;;5081089;28;20200;-77
2022/10/25 05:34:37;;;;;;;6.53;2.93;;;13.20;19.10;;;;;;5087165;28;20785;-80
2022/10/25 05:37:04;;;;;;;7.40;3.10;;;13.20;21.70;;;;;;5089226;28;20202;-78
2022/10/25 05:39:30;;;;;;;9.03;3.30;;;13.20;23.00;;;;;;5090679;28;20788;-77
2022/10/25 05:41:55;;;;;;;7.30;3.07;;;13.20;24.50;;;;;;5086902;28;20196;-80
2022/10/25 05:44:21;;;;;;;7.87;3.17;;;13.10;25.20;;;;;;5089539;28;20285;-77
2022/10/25 05:46:46;;;;;;;6.07;3.13;;;13.00;27.40;;;;;;5087164;28;20180;-77
2022/10/25 05:49:12;;;;;;;5.53;2.67;;;13.00;29.60;;;;;;5087339;28;20779;-78
2022/10/25 05:51:37;;;;;;;7.10;2.37;;;13.00;31.60;;;;;;5088684;28;20237;-77
2022/10/25 05:54:12;;;;;;;6.00;2.80;;;12.90;30.90;;;;;;5089514;28;20294;-78
2022/10/25 05:56:38;;;;;;;11.43;2.93;;;12.90;34.10;;;;;;5089089;28;20159;-77
2022/10/25 05:59:09;;;;;;;9.07;2.83;;;12.90;32.20;;;;;;5088355;28;20425;-79
2022/10/25 06:01:37;;;;;;;16.60;3.40;;;13.00;35.30;;;;;;5084747;28;20524;-79
2022/10/25 06:04:02;;;;;;;5.60;2.30;;;13.00;30.30;;;;;;5088410;28;20432;-78
2022/10/25 06:06:28;;;;;;;7.50;2.87;;;13.10;30.90;;;;;;5089223;28;20879;-77
2022/10/25 06:08:58;;;;;;;5.37;2.53;;;13.10;29.70;;;;;;5082774;28;20210;-78
2022/10/25 06:11:25;;;;;;;9.40;3.00;;;13.10;28.60;;;;;;5088707;28;20695;-78
2022/10/25 06:13:51;;;;;;;7.07;2.83;;;13.10;30.10;;;;;;5086234;28;20446;-77
2022/10/25 06:16:18;;;;;;;6.60;3.30;;;13.00;30.60;;;;;;5081625;28;20866;-78
2022/10/25 06:18:44;;;;;;;6.33;3.83;;;13.10;32.80;;;;;;5090441;28;20584;-77
2022/10/25 06:21:12;;;;;;;7.43;3.13;;;13.20;30.00;;;;;;5094909;28;20421;-79
2022/10/25 06:23:39;;;;;;;11.33;3.20;;;13.30;29.90;;;;;;5089148;28;20214;-78
2022/10/25 06:26:10;;;;;;;9.23;3.43;;;13.40;26.30;;;;;;5087322;28;20774;-77
2022/10/25 06:28:36;;;;;;;7.60;2.77;;;13.50;24.40;;;;;;5085760;28;20781;-78
2022/10/25 06:31:04;;;;;;;8.50;3.00;;;13.60;21.40;;;;;;5079882;28;20485;-77
2022/10/25 06:33:30;;;;;;;8.10;3.27;;;13.70;19.20;;;;;;5087486;28;20428;-77
2022/10/25 06:35:57;;;;;;;5.93;2.67;;;13.70;18.20;;;;;;5088460;28;20529;-77
2022/10/25 06:38:23;;;;;;;6.10;2.83;;;13.90;17.30;;;;;;5088385;28;20847;-78
2022/10/25 06:40:48;;;;;;;11.83;2.90;;;13.90;15.60;;;;;;5083191;28;20540;-78
2022/10/25 06:43:14;;;;;;;6.80;3.00;;;14.00;12.30;;;;;;5086111;28;20198;-77
2022/10/25 06:45:41;;;;;;;14.33;2.77;;;14.10;11.40;;;;;;5086603;28;20176;-77
2022/10/25 06:48:06;;;;;;;4.63;2.37;;;14.10;8.80;;;;;;5078323;28;20176;-78
2022/10/25 06:50:32;;;;;;;18.13;3.87;;;14.10;6.20;;;;;;5079082;28;20442;-76
2022/10/25 06:52:57;;;;;;;10.40;2.80;;;14.20;6.00;;;;;;5085636;28;20191;-76
2022/10/25 06:55:23;;;;;;;4.73;2.33;;;14.10;6.20;;;;;;5088289;28;20688;-76
2022/10/25 06:57:49;;;;;;;5.43;2.80;;;14.10;6.50;;;;;;5087974;28;20172;-76
2022/10/25 07:00:14;;;;;;;7.83;2.80;;;14.40;7.30;;;;;;5086434;28;20464;-78
2022/10/25 07:02:40;;;;;;;8.30;2.60;;;14.10;7.10;;;;;;5073554;28;20345;-76
2022/10/25 07:05:06;;;;;;;5.87;2.63;;;14.10;7.70;;;;;;5083892;28;20199;-78
2022/10/25 07:07:31;;;;;;;5.13;2.80;;;14.10;8.10;;;;;;5086522;28;20179;-76
2022/10/25 07:09:57;;;;;;;7.70;2.63;;;14.20;9.10;;;;;;5088682;28;20176;-76
2022/10/25 07:12:22;;;;;;;7.07;3.00;;;14.20;7.60;;;;;;5086690;28;20271;-77
2022/10/25 07:14:48;;;;;;;6.03;2.80;;;14.10;8.60;;;;;;5091969;28;20219;-76
2022/10/25 07:17:13;;;;;;;7.70;2.80;;;14.10;9.10;;;;;;5093216;28;20175;-74
2022/10/25 07:19:39;;;;;;;5.70;2.73;;;14.10;8.90;;;;;;5092386;28;20290;-77
2022/10/25 07:22:04;;;;;;;7.00;2.47;;;14.20;9.50;;;;;;5087577;28;20212;-76
2022/10/25 07:24:30;;;;;;;9.80;2.80;;;14.10;9.50;;;;;;5087702;28;20179;-76
2022/10/25 07:26:55;;;;;;;5.83;2.90;;;14.00;9.50;;;;;;5088569;28;20707;-76
2022/10/25 07:29:21;;;;;;;6.30;2.97;;;14.00;10.40;;;;;;5089754;28;20199;-75
2022/10/25 07:31:46;;;;;;;7.73;2.80;;;14.00;12.10;;;;;;5090182;28;20662;-75
2022/10/25 07:34:13;;;;;;;4.43;2.70;;;14.10;12.00;;;;;;5092206;28;20203;-76
2022/10/25 07:36:39;;;;;;;10.50;2.90;;;14.20;12.10;;;;;;5091109;28;20187;-75
2022/10/25 07:39:05;;;;;;;7.97;2.60;;;14.30;9.30;;;;;;5090496;28;20430;-76
2022/10/25 07:41:31;;;;;;;5.83;2.33;;;14.30;7.80;;;;;;5089327;28;20573;-75
2022/10/25 07:43:56;;;;;;;6.37;2.70;;;14.40;10.60;;;;;;5092131;28;20656;-77
2022/10/25 07:46:22;;;;;;;6.80;3.00;;;14.50;7.80;;;;;;5091284;28;20176;-76
2022/10/25 07:48:48;;;;;;;10.77;3.20;;;14.60;3.40;;;;;;5090277;28;20180;-76
2022/10/25 07:51:15;;;;;;;7.90;3.33;;;14.60;3.30;;;;;;5085023;28;20582;-74
2022/10/25 07:53:41;;;;;;;6.27;2.43;;;14.70;1.00;;;;;;5090397;28;20180;-75
2022/10/25 07:56:11;;;;;;;4.57;2.40;;;14.70;1.00;;;;;;5084298;28;20479;-76
2022/10/25 07:58:37;;;;;;;6.87;2.60;;;14.80;1.00;;;;;;5088428;28;20211;-75
2022/10/25 08:01:05;;;;;;;9.00;2.43;;;14.80;1.00;;;;;;5087808;28;20465;-76
2022/10/25 08:03:31;;;;;;;11.40;2.70;;;14.90;1.00;;;;;;5085993;28;20186;-78
2022/10/25 08:05:57;;;;;;;10.27;2.53;;;15.00;1.00;;;;;;5085615;28;20434;-75
2022/10/25 08:08:24;;;;;;;12.10;2.70;;;15.10;1.00;;;;;;5091778;28;20231;-76
2022/10/25 08:10:50;;;;;;;7.10;2.77;;;15.10;1.00;;;;;;5088513;28;21060;-77
2022/10/25 08:13:15;;;;;;;9.30;3.10;;;15.40;1.00;;;;;;5087973;28;20523;-76
2022/10/25 08:15:41;;;;;;;7.80;2.70;;;15.90;1.00;;;;;;5084163;28;20228;-77
2022/10/25 08:18:08;;;;;;;9.00;2.80;;;16.20;1.00;;;;;;5091446;28;20176;-76
2022/10/25 08:20:34;;;;;;;10.20;2.90;;;16.50;1.00;;;;;;5088436;28;20183;-76
2022/10/25 08:23:00;;;;;;;5.10;2.70;;;16.70;1.00;;;;;;5090254;28;20442;-77
2022/10/25 08:25:26;;;;;;;6.80;2.60;;;16.70;1.00;;;;;;5091739;28;20176;-75
2022/10/25 08:27:52;;;;;;;6.63;2.37;;;16.70;1.00;;;;;;5089653;28;20424;-77
2022/10/25 08:30:18;;;;;;;11.17;2.90;;;16.90;1.00;;;;;;5088488;28;20450;-75
2022/10/25 08:32:43;;;;;;;11.73;3.03;;;17.10;1.00;;;;;;5083804;28;20389;-75
2022/10/25 08:35:09;;;;;;;5.93;3.17;;;17.30;1.00;;;;;;5092051;28;20473;-78
2022/10/25 08:37:34;;;;;;;5.83;2.57;;;17.40;1.00;;;;;;5090998;28;20179;-75
2022/10/25 08:40:00;;;;;;;10.70;2.73;;;17.60;1.00;;;;;;5087884;28;20460;-75
2022/10/25 08:42:32;;;;;;;7.13;2.83;;;18.00;1.00;;;;;;5090026;28;20597;-77
2022/10/25 08:45:09;;;;;;;6.80;2.77;;;18.10;1.00;;;;;;5089844;28;20180;-76
2022/10/25 08:47:38;;;;;;;5.03;3.30;;;17.90;1.00;;;;;;5090721;28;20449;-75
2022/10/25 08:50:12;;;;;;;9.00;2.93;;;17.70;1.00;;;;;;5090229;28;20437;-76
2022/10/25 08:52:48;;;;;;;5.90;2.20;;;17.60;1.00;;;;;;5090486;28;20453;-75
2022/10/25 08:55:18;;;;;;;6.10;2.50;;;17.50;1.00;;;;;;5089755;28;20460;-75
2022/10/25 08:57:46;;;;;;;5.93;2.63;;;17.80;1.00;;;;;;5090650;28;20399;-76
2022/10/25 09:00:25;;;;;;;4.60;2.40;;;18.10;1.00;;;;;;5089379;28;20444;-75
2022/10/25 09:02:56;;;;;;;9.30;2.70;;;18.30;1.00;;;;;;5088017;28;20449;-76
2022/10/25 09:05:35;;;;;;;9.47;3.33;;;18.70;1.00;;;;;;5086205;28;20437;-76
2022/10/25 09:08:34;;;;;;;10.60;3.00;;;19.10;1.00;;;;;;5086017;28;20498;-75
2022/10/25 09:11:30;;;;;;;6.20;2.33;;;19.20;1.00;;;;;;5089099;28;20429;-76
2022/10/25 09:14:03;;;;;;;7.03;2.37;;;18.90;1.00;;;;;;5090046;28;20428;-76
2022/10/25 09:16:48;;;;;;;4.03;2.10;;;18.50;1.00;;;;;;5088906;28;20422;-75
2022/10/25 09:19:34;;;;;;;6.50;2.07;;;18.50;1.00;;;;;;5087974;28;20498;-74
2022/10/25 09:22:00;;;;;;;7.57;2.60;;;18.50;1.00;;;;;;5086414;28;20460;-77
2022/10/25 09:24:44;;;;;;;6.37;2.37;;;19.30;1.00;;;;;;5088970;28;20436;-75
2022/10/25 09:27:22;;;;;;;6.77;2.23;;;19.60;1.00;;;;;;5069914;28;20418;-75
2022/10/25 09:30:00;;;;;;;9.27;2.33;;;19.80;1.00;;;;;;5087920;28;20510;-76
2022/10/25 09:32:35;;;;;;;4.23;2.20;;;19.70;1.00;;;;;;5082934;28;20487;-75
2022/10/25 09:35:03;;;;;;;8.00;2.47;;;19.60;1.00;;;;;;5082486;28;20499;-76
2022/10/25 09:37:40;;;;;;;5.53;2.07;;;19.70;1.00;;;;;;5090273;28;20456;-76
2022/10/25 09:40:13;;;;;;;5.87;2.50;;;20.20;1.00;;;;;;5087926;28;20421;-76
2022/10/25 09:42:51;;;;;;;6.87;2.10;;;20.80;1.00;;;;;;5085219;28;20538;-77
2022/10/25 09:45:29;;;;;;;8.73;2.90;;;21.00;1.00;;;;;;5090823;28;20965;-75
2022/10/25 09:47:58;;;;;;;5.83;2.20;;;21.00;1.00;;;;;;5085101;28;20449;-75
2022/10/25 09:50:33;;;;;;;8.80;2.20;;;22.00;1.00;;;;;;5088173;28;20421;-76
2022/10/25 09:53:13;;;;;;;7.10;2.30;;;23.80;1.00;;;;;;5089863;28;20421;-75
2022/10/25 09:55:42;;;;;;;11.73;2.50;;;25.80;1.00;;;;;;5087961;28;20553;-77
2022/10/25 09:58:20;;;;;;;9.47;2.50;;;27.10;1.00;;;;;;5087651;28;20457;-77
2022/10/25 10:00:45;;;;;;;7.30;2.30;;;28.00;1.00;;;;;;5088296;28;20508;-76
2022/10/25 10:03:12;;;;;;;8.73;2.20;;;28.00;1.00;;;;;;5090106;28;20631;-76
2022/10/25 10:05:43;;;;;;;6.70;2.10;;;27.20;1.00;;;;;;5085760;28;20601;-78
2022/10/25 10:08:09;;;;;;;9.20;2.20;;;27.20;1.00;;;;;;5079365;28;20433;-76
2022/10/25 10:10:34;;;;;;;7.50;2.10;;;26.20;1.00;;;;;;5088644;28;20515;-78
2022/10/25 10:13:11;;;;;;;6.80;1.90;;;26.90;1.00;;;;;;5081092;28;20199;-77
2022/10/25 10:15:58;;;;;;;6.37;2.60;;;26.30;1.00;;;;;;5089785;28;20684;-77
2022/10/25 10:18:25;;;;;;;8.83;1.90;;;25.10;1.00;;;;;;5092090;28;20413;-76
2022/10/25 10:21:16;;;;;;;5.03;1.73;;;26.00;1.00;;;;;;5087345;28;20959;-80
